createdAt,value
2022-12-05T00:00:24.081Z,4.11
2022-12-05T00:02:55.424Z,4.08
2022-12-05T00:05:26.754Z,4.10
2022-12-05T00:07:58.138Z,4.12
2022-12-05T00:10:29.455Z,4.13
2022-12-05T00:13:00.790Z,4.14
2022-12-05T00:15:32.085Z,4.12
2022-12-05T00:18:03.807Z,4.13
2022-12-05T00:20:35.169Z,4.12
2022-12-05T00:23:06.461Z,4.14
2022-12-05T00:25:37.856Z,4.11
2022-12-05T00:28:09.122Z,4.14
2022-12-05T00:30:40.832Z,4.15
2022-12-05T00:33:12.224Z,4.11
2022-12-05T00:35:43.482Z,4.17
2022-12-05T00:38:14.853Z,4.13
2022-12-05T00:40:46.139Z,4.12
2022-12-05T00:43:17.421Z,4.15
2022-12-05T00:45:48.739Z,4.12
2022-12-05T00:48:20.069Z,4.13
2022-12-05T00:51:00.545Z,4.07
2022-12-05T00:53:32.732Z,4.09
2022-12-05T00:56:14.531Z,4.12
2022-12-05T00:58:46.764Z,4.11
2022-12-05T01:01:32.831Z,4.12
2022-12-05T01:04:11.313Z,4.14
2022-12-05T01:06:43.338Z,4.08
2022-12-05T01:09:18.823Z,4.12
2022-12-05T01:11:50.604Z,4.11
2022-12-05T01:14:23.928Z,4.13
2022-12-05T01:16:56.140Z,4.13
2022-12-05T01:19:30.097Z,4.12
2022-12-05T01:22:01.665Z,4.05
2022-12-05T01:24:32.946Z,4.08
2022-12-05T01:27:04.304Z,4.09
2022-12-05T01:29:35.644Z,4.04
2022-12-05T01:32:07.016Z,4.05
2022-12-05T01:34:38.430Z,4.05
2022-12-05T01:37:09.785Z,4.07
2022-12-05T01:39:41.165Z,4.08
2022-12-05T01:42:12.847Z,4.07
2022-12-05T01:44:47.136Z,4.07
2022-12-05T01:47:19.088Z,4.04
2022-12-05T01:49:50.455Z,4.05
2022-12-05T01:52:25.305Z,4.06
2022-12-05T01:55:08.534Z,4.10
2022-12-05T01:57:41.007Z,4.08
2022-12-05T02:00:16.311Z,4.12
2022-12-05T02:02:54.595Z,4.12
2022-12-05T02:05:37.519Z,4.13
2022-12-05T02:08:10.740Z,4.13
2022-12-05T02:11:00.243Z,4.11
2022-12-05T02:13:59.567Z,4.14
2022-12-05T02:16:58.657Z,4.09
2022-12-05T02:20:02.860Z,4.14
2022-12-05T02:22:42.225Z,4.13
2022-12-05T02:25:51.689Z,4.14
2022-12-05T02:28:52.984Z,4.15
2022-12-05T02:31:51.475Z,4.12
2022-12-05T02:34:40.404Z,4.13
2022-12-05T02:37:22.787Z,4.18
2022-12-05T02:40:10.594Z,4.20
2022-12-05T02:42:44.858Z,4.22
2022-12-05T02:45:18.753Z,4.24
2022-12-05T02:47:52.782Z,4.24
2022-12-05T02:50:29.121Z,4.25
2022-12-05T02:53:03.553Z,4.25
2022-12-05T02:55:35.477Z,4.18
2022-12-05T02:58:11.688Z,4.20
2022-12-05T03:00:47.361Z,4.21
2022-12-05T03:03:21.963Z,4.24
2022-12-05T03:06:05.163Z,4.21
2022-12-05T03:08:48.521Z,4.25
2022-12-05T03:11:20.260Z,4.27
2022-12-05T03:13:55.891Z,4.28
2022-12-05T03:16:38.726Z,4.28
2022-12-05T03:19:20.069Z,4.31
2022-12-05T03:22:10.644Z,4.31
2022-12-05T03:24:43.129Z,4.28
2022-12-05T03:27:46.418Z,4.31
2022-12-05T03:30:20.563Z,4.30
2022-12-05T03:33:17.759Z,4.30
2022-12-05T03:36:04.413Z,4.31
2022-12-05T03:38:56.652Z,4.31
2022-12-05T03:41:45.007Z,4.29
2022-12-05T03:44:43.088Z,4.30
2022-12-05T03:47:42.249Z,4.32
2022-12-05T03:50:24.240Z,4.34
2022-12-05T03:53:20.351Z,4.35
2022-12-05T03:56:02.221Z,4.34
2022-12-05T03:58:41.610Z,4.37
2022-12-05T04:01:16.672Z,4.37
2022-12-05T04:03:56.416Z,4.37
2022-12-05T04:06:33.175Z,4.34
2022-12-05T04:09:12.381Z,4.37
2022-12-05T04:11:53.195Z,4.37
2022-12-05T04:14:35.349Z,4.39
2022-12-05T04:17:16.919Z,4.37
2022-12-05T04:20:15.670Z,4.34
2022-12-05T04:22:47.295Z,4.33
2022-12-05T04:25:34.128Z,4.31
2022-12-05T04:28:19.641Z,4.34
2022-12-05T04:31:13.297Z,4.31
2022-12-05T04:33:54.622Z,4.25
2022-12-05T04:36:45.070Z,4.27
2022-12-05T04:39:22.807Z,4.29
2022-12-05T04:42:00.054Z,4.31
2022-12-05T04:44:37.933Z,4.30
2022-12-05T04:47:14.772Z,4.28
2022-12-05T04:49:52.166Z,4.27
2022-12-05T04:52:25.688Z,4.27
2022-12-05T04:55:09.496Z,4.28
2022-12-05T04:57:52.219Z,4.31
2022-12-05T05:00:24.205Z,4.33
2022-12-05T05:03:06.941Z,4.30
2022-12-05T05:05:39.660Z,4.29
2022-12-05T05:08:23.408Z,4.30
2022-12-05T05:11:04.569Z,4.32
2022-12-05T05:13:36.235Z,4.33
2022-12-05T05:16:08.760Z,4.35
2022-12-05T05:18:40.168Z,4.34
2022-12-05T05:21:21.400Z,4.35
2022-12-05T05:23:53.442Z,4.26
2022-12-05T05:26:26.317Z,4.32
2022-12-05T05:28:58.357Z,4.31
2022-12-05T05:31:30.305Z,4.32
2022-12-05T05:34:07.633Z,4.31
2022-12-05T05:36:40.832Z,4.31
2022-12-05T05:39:14.872Z,4.31
2022-12-05T05:41:46.154Z,4.31
2022-12-05T05:44:17.404Z,4.31
2022-12-05T05:46:48.815Z,4.30
2022-12-05T05:49:20.126Z,4.29
2022-12-05T05:51:51.385Z,4.26
2022-12-05T05:54:22.679Z,4.31
2022-12-05T05:56:53.992Z,4.30
2022-12-05T05:59:25.332Z,4.35
2022-12-05T06:01:56.665Z,4.36
2022-12-05T06:04:27.968Z,4.35
2022-12-05T06:06:59.301Z,4.33
2022-12-05T06:09:30.713Z,4.34
2022-12-05T06:12:02.006Z,4.33
2022-12-05T06:14:33.403Z,4.34
2022-12-05T06:17:05.135Z,4.37
2022-12-05T06:19:36.396Z,4.37
2022-12-05T06:22:08.136Z,4.38
2022-12-05T06:24:39.443Z,4.36
2022-12-05T06:27:10.766Z,4.38
2022-12-05T06:29:42.227Z,4.37
2022-12-05T06:32:13.564Z,4.36
2022-12-05T06:34:44.805Z,4.33
2022-12-05T06:37:16.086Z,4.33
2022-12-05T06:39:47.377Z,4.30
2022-12-05T06:42:18.748Z,4.26
2022-12-05T06:44:50.033Z,4.27
2022-12-05T06:47:21.296Z,4.25
2022-12-05T06:49:52.553Z,4.28
2022-12-05T06:52:23.839Z,4.25
2022-12-05T06:54:55.118Z,4.23
2022-12-05T06:57:28.498Z,4.25
2022-12-05T07:00:18.450Z,4.27
2022-12-05T07:02:53.167Z,4.32
2022-12-05T07:05:24.711Z,4.34
2022-12-05T07:07:56.130Z,4.37
2022-12-05T07:10:27.460Z,4.37
2022-12-05T07:12:58.753Z,4.39
2022-12-05T07:15:30.012Z,4.43
2022-12-05T07:18:01.352Z,4.44
2022-12-05T07:20:56.081Z,4.42
2022-12-05T07:23:23.904Z,4.36
2022-12-05T07:25:55.422Z,4.34
2022-12-05T07:28:26.780Z,4.34
2022-12-05T07:31:02.347Z,4.25
2022-12-05T07:33:33.716Z,4.25
2022-12-05T07:36:07.485Z,4.21
2022-12-05T07:38:39.313Z,4.20
2022-12-05T07:41:17.642Z,4.21
2022-12-05T07:43:50.878Z,4.14
2022-12-05T07:46:23.033Z,4.16
2022-12-05T07:48:54.744Z,4.14
2022-12-05T07:51:28.096Z,4.09
2022-12-05T07:53:59.889Z,4.06
2022-12-05T07:56:31.260Z,4.00
2022-12-05T07:59:02.864Z,3.98
2022-12-05T08:01:34.329Z,3.89
2022-12-05T08:04:07.660Z,3.89
2022-12-05T08:06:40.800Z,3.82
2022-12-05T08:09:12.078Z,3.81
2022-12-05T08:11:46.947Z,3.85
2022-12-05T08:14:21.542Z,3.88
2022-12-05T08:16:52.959Z,3.89
2022-12-05T08:19:24.299Z,3.91
2022-12-05T08:21:55.632Z,3.91
2022-12-05T08:24:26.960Z,3.87
2022-12-05T08:26:58.232Z,3.84
2022-12-05T08:29:29.514Z,3.84
2022-12-05T08:32:00.778Z,3.83
2022-12-05T08:34:32.070Z,3.87
2022-12-05T08:37:03.524Z,3.85
2022-12-05T08:39:38.693Z,3.83
2022-12-05T08:42:10.351Z,3.86
2022-12-05T08:44:41.607Z,3.83
2022-12-05T08:47:12.856Z,3.91
2022-12-05T08:49:44.165Z,3.88
2022-12-05T08:52:15.501Z,3.89
2022-12-05T08:54:46.756Z,3.89
2022-12-05T08:57:18.064Z,3.88
2022-12-05T08:59:49.316Z,3.82
2022-12-05T09:02:20.645Z,3.82
2022-12-05T09:04:54.083Z,3.74
2022-12-05T09:07:25.637Z,3.69
2022-12-05T09:09:56.892Z,3.65
2022-12-05T09:12:28.147Z,3.68
2022-12-05T09:14:59.687Z,3.63
2022-12-05T09:17:31.120Z,3.55
2022-12-05T09:20:02.429Z,3.54
2022-12-05T09:22:33.735Z,3.49
2022-12-05T09:25:05.942Z,3.47
2022-12-05T09:27:37.240Z,3.42
2022-12-05T09:30:09.330Z,3.40
2022-12-05T09:32:40.607Z,3.38
2022-12-05T09:35:12.224Z,3.39
2022-12-05T09:37:43.474Z,3.39
2022-12-05T09:40:17.163Z,3.38
2022-12-05T09:43:01.225Z,3.40
2022-12-05T09:45:39.739Z,3.38
2022-12-05T09:48:14.663Z,3.37
2022-12-05T09:50:56.180Z,3.40
2022-12-05T09:53:32.320Z,3.38
2022-12-05T09:56:05.286Z,3.38
2022-12-05T09:58:45.489Z,3.36
2022-12-05T10:01:25.613Z,3.36
2022-12-05T10:04:20.832Z,3.36
2022-12-05T10:07:15.560Z,3.34
2022-12-05T10:09:55.296Z,3.28
2022-12-05T10:12:47.719Z,3.27
2022-12-05T10:15:45.708Z,3.30
2022-12-05T10:18:38.730Z,3.32
2022-12-05T10:21:25.729Z,3.35
2022-12-05T10:24:00.608Z,3.31
2022-12-05T10:26:43.750Z,3.38
2022-12-05T10:29:20.721Z,3.40
2022-12-05T10:32:00.932Z,3.47
2022-12-05T10:34:39.447Z,3.52
2022-12-05T10:37:17.558Z,3.59
2022-12-05T10:39:50.416Z,3.65
2022-12-05T10:42:28.329Z,3.71
2022-12-05T10:45:04.722Z,3.76
2022-12-05T10:47:36.669Z,3.75
2022-12-05T10:50:21.625Z,3.70
2022-12-05T10:52:55.542Z,3.66
2022-12-05T10:55:36.129Z,3.63
2022-12-05T10:58:17.844Z,3.59
2022-12-05T11:00:53.144Z,3.57
2022-12-05T11:03:29.243Z,3.57
2022-12-05T11:06:03.018Z,3.55
2022-12-05T11:09:03.011Z,3.47
2022-12-05T11:11:33.174Z,3.44
2022-12-05T11:14:07.818Z,3.37
2022-12-05T11:16:39.485Z,3.30
2022-12-05T11:19:31.243Z,3.26
2022-12-05T11:22:04.831Z,3.26
2022-12-05T11:24:38.298Z,3.20
2022-12-05T11:27:15.724Z,3.17
2022-12-05T11:30:18.783Z,3.16
2022-12-05T11:32:51.384Z,3.14
2022-12-05T11:35:26.223Z,3.12
2022-12-05T11:38:01.875Z,3.10
2022-12-05T11:40:48.208Z,3.08
2022-12-05T11:43:54.710Z,3.07
2022-12-05T11:46:32.071Z,3.04
2022-12-05T11:49:09.295Z,3.01
2022-12-05T11:51:56.747Z,3.00
2022-12-05T11:55:03.767Z,2.98
2022-12-05T11:57:48.894Z,3.00
2022-12-05T12:00:41.418Z,3.01
2022-12-05T12:03:49.664Z,3.01
2022-12-05T12:07:02.755Z,3.05
2022-12-05T12:09:53.823Z,3.05
2022-12-05T12:12:33.702Z,3.04
2022-12-05T12:15:32.381Z,3.05
2022-12-05T12:18:17.991Z,3.05
2022-12-05T12:21:17.183Z,3.05
2022-12-05T12:24:11.358Z,3.06
2022-12-05T12:27:00.185Z,3.06
2022-12-05T12:30:03.816Z,3.09
2022-12-05T12:33:02.967Z,3.12
2022-12-05T12:35:40.607Z,3.12
2022-12-05T12:38:37.080Z,3.15
2022-12-05T12:41:26.397Z,3.24
2022-12-05T12:44:22.733Z,3.28
2022-12-05T12:46:58.565Z,3.32
2022-12-05T12:49:42.020Z,3.32
2022-12-05T12:52:26.641Z,3.31
2022-12-05T12:55:30.251Z,3.32
2022-12-05T12:58:40.286Z,3.35
2022-12-05T13:01:24.327Z,3.34
2022-12-05T13:04:28.295Z,3.40
2022-12-05T13:07:15.914Z,3.43
2022-12-05T13:09:55.626Z,3.48
2022-12-05T13:12:31.315Z,3.46
2022-12-05T13:15:11.512Z,3.50
2022-12-05T13:17:47.313Z,3.52
2022-12-05T13:20:22.974Z,3.50
2022-12-05T13:22:54.975Z,3.52
2022-12-05T13:25:30.803Z,3.47
2022-12-05T13:28:05.262Z,3.47
2022-12-05T13:30:56.530Z,3.44
2022-12-05T13:33:42.008Z,3.37
2022-12-05T13:36:40.340Z,3.32
2022-12-05T13:39:33.583Z,3.32
2022-12-05T13:42:17.883Z,3.33
2022-12-05T13:44:57.356Z,3.31
2022-12-05T13:47:35.406Z,3.29
2022-12-05T13:50:07.146Z,3.27
2022-12-05T13:52:42.889Z,3.29
2022-12-05T13:55:23.224Z,3.31
2022-12-05T13:57:56.505Z,3.31
2022-12-05T14:00:31.113Z,3.29
2022-12-05T14:03:15.847Z,3.30
2022-12-05T14:05:49.653Z,3.31
2022-12-05T14:08:35.596Z,3.29
2022-12-05T14:11:10.901Z,3.26
2022-12-05T14:13:44.027Z,3.24
2022-12-05T14:16:24.195Z,3.25
2022-12-05T14:19:12.241Z,3.26
2022-12-05T14:21:53.046Z,3.20
2022-12-05T14:24:55.541Z,3.19
2022-12-05T14:27:53.679Z,3.19
2022-12-05T14:31:02.667Z,3.16
2022-12-05T14:33:34.095Z,3.15
2022-12-05T14:36:08.286Z,3.13
2022-12-05T14:38:40.090Z,3.11
2022-12-05T14:41:22.439Z,3.10
2022-12-05T14:43:56.489Z,3.08
2022-12-05T14:46:33.396Z,3.10
2022-12-05T14:49:47.051Z,3.10
2022-12-05T14:52:26.463Z,3.12
2022-12-05T14:55:06.011Z,3.12
2022-12-05T14:57:46.901Z,3.17
2022-12-05T15:00:22.605Z,3.19
2022-12-05T15:02:56.491Z,3.19
2022-12-05T15:05:31.784Z,3.24
2022-12-05T15:08:04.758Z,3.24
2022-12-05T15:10:38.558Z,3.25
2022-12-05T15:13:24.483Z,3.25
2022-12-05T15:16:12.739Z,3.24
2022-12-05T15:18:50.309Z,3.24
2022-12-05T15:21:33.431Z,3.20
2022-12-05T15:24:11.718Z,3.18
2022-12-05T15:26:50.549Z,3.16
2022-12-05T15:29:25.333Z,3.12
2022-12-05T15:32:11.947Z,3.10
2022-12-05T15:35:06.079Z,3.07
2022-12-05T15:37:55.135Z,3.04
2022-12-05T15:40:36.913Z,3.05
2022-12-05T15:43:30.834Z,3.04
2022-12-05T15:46:09.410Z,3.03
2022-12-05T15:48:40.779Z,3.02
2022-12-05T15:51:12.242Z,2.95
2022-12-05T15:53:56.155Z,3.01
2022-12-05T15:56:36.009Z,2.99
2022-12-05T15:59:26.090Z,2.97
2022-12-05T16:02:26.278Z,2.93
2022-12-05T16:04:59.995Z,2.89
2022-12-05T16:07:31.648Z,2.85
2022-12-05T16:10:03.183Z,2.79
2022-12-05T16:12:39.691Z,2.81
2022-12-05T16:15:27.914Z,2.80
2022-12-05T16:18:02.126Z,2.77
2022-12-05T16:20:36.268Z,2.80
2022-12-05T16:23:29.832Z,2.76
2022-12-05T16:26:20.079Z,2.75
2022-12-05T16:29:01.617Z,2.75
2022-12-05T16:31:34.069Z,2.77
2022-12-05T16:34:08.399Z,2.75
2022-12-05T16:36:46.806Z,2.76
2022-12-05T16:39:19.997Z,2.74
2022-12-05T16:41:51.542Z,2.72
2022-12-05T16:44:28.930Z,2.70
2022-12-05T16:47:00.254Z,2.67
2022-12-05T16:49:34.451Z,2.65
2022-12-05T16:52:08.832Z,2.63
2022-12-05T16:54:42.532Z,2.61
2022-12-05T16:57:16.198Z,2.60
2022-12-05T16:59:49.344Z,2.56
2022-12-05T17:02:20.844Z,2.49
2022-12-05T17:04:52.557Z,2.40
2022-12-05T17:07:23.869Z,2.38
2022-12-05T17:09:55.462Z,2.33
2022-12-05T17:12:28.170Z,2.32
2022-12-05T17:14:59.731Z,2.27
2022-12-05T17:17:31.133Z,2.27
2022-12-05T17:20:02.440Z,2.25
2022-12-05T17:22:33.784Z,2.24
2022-12-05T17:25:24.623Z,2.22
2022-12-05T17:27:55.891Z,2.27
2022-12-05T17:30:27.243Z,2.30
2022-12-05T17:32:58.497Z,2.28
2022-12-05T17:35:30.426Z,2.31
2022-12-05T17:38:03.525Z,2.28
2022-12-05T17:40:34.954Z,2.25
2022-12-05T17:43:06.265Z,2.26
2022-12-05T17:45:37.661Z,2.29
2022-12-05T17:48:13.864Z,2.36
2022-12-05T17:50:47.348Z,2.37
2022-12-05T17:53:21.017Z,2.44
2022-12-05T17:55:52.920Z,2.49
2022-12-05T17:58:24.224Z,2.54
2022-12-05T18:00:55.764Z,2.53
2022-12-05T18:03:27.359Z,2.62
2022-12-05T18:05:58.920Z,2.64
2022-12-05T18:08:30.335Z,2.68
2022-12-05T18:11:01.717Z,2.67
2022-12-05T18:13:33.713Z,2.62
2022-12-05T18:16:05.433Z,2.62
2022-12-05T18:18:36.789Z,2.61
2022-12-05T18:21:12.572Z,2.61
2022-12-05T18:23:44.043Z,2.61
2022-12-05T18:26:15.420Z,2.57
2022-12-05T18:28:47.436Z,2.55
2022-12-05T18:31:19.334Z,2.53
2022-12-05T18:33:50.841Z,2.52
2022-12-05T18:36:22.222Z,2.48
2022-12-05T18:38:55.387Z,2.46
2022-12-05T18:41:27.209Z,2.40
2022-12-05T18:43:58.552Z,2.38
2022-12-05T18:46:29.933Z,2.39
2022-12-05T18:49:03.499Z,2.39
2022-12-05T18:51:35.140Z,2.39
2022-12-05T18:54:06.886Z,2.37
2022-12-05T18:56:39.980Z,2.39
2022-12-05T18:59:16.919Z,2.43
2022-12-05T19:01:49.739Z,2.44
2022-12-05T19:04:21.538Z,2.45
2022-12-05T19:06:58.917Z,2.45
2022-12-05T19:09:32.204Z,2.46
2022-12-05T19:12:03.779Z,2.45
2022-12-05T19:14:35.183Z,2.47
2022-12-05T19:17:06.615Z,2.47
2022-12-05T19:19:38.093Z,2.40
2022-12-05T19:22:09.449Z,2.42
2022-12-05T19:24:40.779Z,2.42
2022-12-05T19:27:12.195Z,2.38
2022-12-05T19:29:43.512Z,2.40
2022-12-05T19:32:15.023Z,2.40
2022-12-05T19:34:48.288Z,2.34
2022-12-05T19:37:19.633Z,2.35
2022-12-05T19:39:51.647Z,2.34
2022-12-05T19:42:23.071Z,2.30
2022-12-05T19:44:54.342Z,2.30
2022-12-05T19:47:25.608Z,2.29
2022-12-05T19:49:57.339Z,2.30
2022-12-05T19:52:28.853Z,2.28
2022-12-05T19:55:00.136Z,2.25
2022-12-05T19:57:31.671Z,2.24
2022-12-05T20:00:03.974Z,2.25
2022-12-05T20:02:39.994Z,2.25
2022-12-05T20:05:11.672Z,2.27
2022-12-05T20:07:43.008Z,2.27
2022-12-05T20:10:14.420Z,2.22
2022-12-05T20:12:45.874Z,2.24
2022-12-05T20:15:17.415Z,2.28
2022-12-05T20:17:52.998Z,2.31
2022-12-05T20:20:24.695Z,2.33
2022-12-05T20:22:56.084Z,2.33
2022-12-05T20:25:27.366Z,2.34
2022-12-05T20:27:58.776Z,2.35
2022-12-05T20:30:30.682Z,2.30
2022-12-05T20:33:02.084Z,2.38
2022-12-05T20:35:37.145Z,2.38
2022-12-05T20:38:08.437Z,2.38
2022-12-05T20:40:39.815Z,2.37
2022-12-05T20:43:11.230Z,2.40
2022-12-05T20:45:42.514Z,2.41
2022-12-05T20:48:13.826Z,2.39
2022-12-05T20:50:45.125Z,2.46
2022-12-05T20:53:16.445Z,2.46
2022-12-05T20:55:47.831Z,2.46
2022-12-05T20:58:19.146Z,2.49
2022-12-05T21:00:57.691Z,2.49
2022-12-05T21:03:29.186Z,2.53
2022-12-05T21:06:00.472Z,2.53
2022-12-05T21:08:31.808Z,2.53
2022-12-05T21:11:03.370Z,2.53
2022-12-05T21:13:35.508Z,2.54
2022-12-05T21:16:16.501Z,2.53
2022-12-05T21:18:48.501Z,2.52
2022-12-05T21:21:22.293Z,2.51
2022-12-05T21:23:59.490Z,2.52
2022-12-05T21:26:33.539Z,2.55
2022-12-05T21:29:06.819Z,2.49
2022-12-05T21:31:40.761Z,2.58
2022-12-05T21:34:17.393Z,2.59
2022-12-05T21:36:49.177Z,2.59
2022-12-05T21:39:20.770Z,2.61
2022-12-05T21:41:52.153Z,2.60
2022-12-05T21:44:23.521Z,2.60
2022-12-05T21:46:54.832Z,2.58
2022-12-05T21:49:26.251Z,2.62
2022-12-05T21:51:57.499Z,2.62
2022-12-05T21:54:30.315Z,2.61
2022-12-05T21:57:01.568Z,2.61
2022-12-05T21:59:32.924Z,2.63
2022-12-05T22:02:04.297Z,2.59
2022-12-05T22:04:35.589Z,2.55
2022-12-05T22:07:06.878Z,2.63
2022-12-05T22:09:38.178Z,2.64
2022-12-05T22:12:09.485Z,2.64
2022-12-05T22:14:40.749Z,2.67
2022-12-05T22:17:12.027Z,2.65
2022-12-05T22:19:43.392Z,2.64
2022-12-05T22:22:14.727Z,2.68
2022-12-05T22:24:46.040Z,2.68
2022-12-05T22:27:17.310Z,2.60
2022-12-05T22:29:52.697Z,2.65
2022-12-05T22:32:24.254Z,2.65
2022-12-05T22:34:59.286Z,2.65
2022-12-05T22:37:34.671Z,2.63
2022-12-05T22:40:06.698Z,2.65
2022-12-05T22:42:37.978Z,2.67
2022-12-05T22:45:12.371Z,2.66
2022-12-05T22:47:43.842Z,2.66
2022-12-05T22:50:15.223Z,2.63
2022-12-05T22:52:46.548Z,2.63
2022-12-05T22:55:17.922Z,2.59
2022-12-05T22:57:49.177Z,2.60
2022-12-05T23:00:20.665Z,2.56
2022-12-05T23:02:52.553Z,2.56
2022-12-05T23:05:23.875Z,2.53
2022-12-05T23:07:55.261Z,2.46
2022-12-05T23:10:26.785Z,2.51
2022-12-05T23:12:58.167Z,2.51
2022-12-05T23:15:29.575Z,2.52
2022-12-05T23:18:00.839Z,2.46
2022-12-05T23:20:32.859Z,2.47
2022-12-05T23:23:04.183Z,2.47
2022-12-05T23:25:35.521Z,2.44
2022-12-05T23:28:06.790Z,2.48
2022-12-05T23:30:38.063Z,2.49
2022-12-05T23:33:09.520Z,2.49
2022-12-05T23:35:40.785Z,2.53
2022-12-05T23:38:12.076Z,2.53
2022-12-05T23:40:43.339Z,2.56
2022-12-05T23:43:14.635Z,2.60
2022-12-05T23:45:45.907Z,2.54
2022-12-05T23:48:17.264Z,2.62
2022-12-05T23:51:07.181Z,2.68
2022-12-05T23:53:40.915Z,2.69
2022-12-05T23:56:15.762Z,2.73
2022-12-05T23:58:47.295Z,2.73
